This is the latest recevied weather packets stored in our database for station/object WB4MOZ-3. If no packets are shown the sender has not sent any weather packets the latest 1 day(s).
| Time | Temp. | Humidity | Pressure | Rain* | Wind** | Luminosity | Snow |
|---|---|---|---|---|---|---|---|
| 1778020068 | 27.78° C | 68% | 1012.6 hPa | 0 mm | 3.13 m/s, 37° | - | - |
| 1778019768 | 27.78° C | 68% | 1012.5 hPa | 0 mm | 2.24 m/s, 47° | - | - |
| 1778019168 | 27.78° C | 67% | 1012.4 hPa | 0 mm | 2.24 m/s, 36° | - | - |
| 1778018568 | 27.78° C | 67% | 1012.4 hPa | 0 mm | 2.24 m/s, 66° | - | - |
| 1778018268 | 28.33° C | 66% | 1012.3 hPa | 0 mm | 3.13 m/s, 83° | - | - |
| 1778017968 | 28.33° C | 64% | 1012.3 hPa | 0 mm | 3.13 m/s, 69° | - | - |
| 1778017668 | 28.33° C | 65% | 1012.3 hPa | 0 mm | 3.13 m/s, 95° | - | - |
| 1778017368 | 28.33° C | 66% | 1012.2 hPa | 0 mm | 2.68 m/s, 14° | - | - |
| 1778017068 | 28.89° C | 64% | 1012.1 hPa | 0 mm | 4.47 m/s, 87° | - | - |
| 1778016768 | 28.89° C | 64% | 1012 hPa | 0 mm | 3.58 m/s, 63° | - | - |
| 1778016468 | 28.89° C | 63% | 1011.9 hPa | 0 mm | 3.13 m/s, 52° | - | - |
| 1778016168 | 29.44° C | 63% | 1011.9 hPa | 0 mm | 2.68 m/s, 72° | - | - |
| 1778015868 | 29.44° C | 62% | 1011.9 hPa | 0 mm | 2.68 m/s, 52° | - | - |
| 1778015568 | 30° C | 61% | 1011.9 hPa | 0 mm | 3.58 m/s, 81° | - | - |
| 1778015268 | 30° C | 63% | 1011.9 hPa | 0 mm | 2.24 m/s, 33° | - | - |
| 1778014968 | 30° C | 62% | 1011.9 hPa | 0 mm | 3.13 m/s, 69° | - | - |
| 1778014668 | 30° C | 62% | 1011.9 hPa | 0 mm | 3.13 m/s, 81° | - | - |
| 1778014368 | 30° C | 61% | 1012 hPa | 0 mm | 3.58 m/s, 59° | - | - |
| 1778014068 | 30° C | 61% | 1012 hPa | 0 mm | 4.02 m/s, 107° | - | - |
| 1778013768 | 30° C | 61% | 1012 hPa | 0 mm | 2.68 m/s, 87° | - | - |
| 1778013468 | 30° C | 61% | 1012 hPa | 0 mm | 3.13 m/s, 73° | - | - |
| 1778013168 | 30° C | 60% | 1012.1 hPa | 0 mm | 3.58 m/s, 74° | - | - |
| 1778012868 | 30° C | 60% | 1012.2 hPa | 0 mm | 3.58 m/s, 102° | - | - |
| 1778012568 | 30° C | 61% | 1012.3 hPa | 0 mm | 3.13 m/s, 55° | - | - |
| 1778012268 | 30° C | 61% | 1012.3 hPa | 0 mm | 3.13 m/s, 48° | - | - |
* Rain latest hour (hover to see other rain measurements)
** Current wind speed in m/s (hover to see current wind gust speed)